London City, United Kingdom

5:58 AM GMT on February 11, 2016 (GMT +0000)
London City | | Change Station
CLOSE
Current Station
Airport
Location: London City,
Elevation: 16 ft
Nearby Weather Stations

Elev 16 ft 51.51 °N, 0.06 °E | Updated 8 minutes ago

Clear
Clear
37 °F
Feels Like 31 °F
N
8
Wind Variable Wind from SW

Today
High -- | Low -- °F
--% Chance of Precip.
Yesterday
High -- | Low -- °F
Precip. -- in
Pressure 29.65 in
Visibility 6.2 miles
Clouds
Windchill 31 °F
Dew Point 34 °F
Humidity 87%
Rainfall 0.00 in
Snow Depth Not available.
7:22 AM 5:06 PM
Waxing Crescent, 9% visible
METAR EGLC 110550Z AUTO 22007KT 9999 NCD 03/01 Q1004
Pressure 29.65 in
Visibility 6.2 miles
Clouds
Windchill 31 °F
Dew Point 34 °F
Humidity 87%
Rainfall 0.00 in
Snow Depth Not available.
7:22 AM 5:06 PM
Waxing Crescent, 9% visible
METAR EGLC 110550Z AUTO 22007KT 9999 NCD 03/01 Q1004

10-Day Weather Forecast

Almanac

Astronomy

Feb. 11, 2016 Rise Set
Actual Time
Civil Twilight
Nautical Twilight
Astronomical Twilight
Moon
Length of Visible Light
Length of Day
Tomorrow will be .
, % of the Moon is Illuminated

Today's Extremes

Country Highs Country Lows

Community

WunderPhotos

Upload Photos

1,892,023 photos uploaded!

WunderBlog® & News

Nearby

Air Quality

  Air Quality AQ Index Pollutant
Not available.

Snow Depth

Station Depth Elevation

Earthquake Activity

City Distance Mag. Time & Date
Minimum magnitude displayed is 2.5.

Coastal Water Temperatures

Place Temperature

Stations

Nearby Weather Stations

Station Location Temp. Windchill Dew Point Humidity Wind Precip. Elev Updated Type